Time;durP1;ratioP1;P1;durP2;ratioP2;P2;SDS_P1;SDS_P2;PMS_P1;PMS_P2;Temp;Humidity;BMP_temperature;BMP_pressure;BME280_temperature;BME280_humidity;BME280_pressure;Samples;Min_cycle;Max_cycle;Signal;HPM_P1;HPM_P2
2021/12/21 00:01:07;;;;;;;3.67;1.63;;;;;;;-1.22;81.32;99524.25;4999764;28;20054;-65
2021/12/21 00:03:52;;;;;;;3.15;1.30;;;;;;;-1.16;81.27;99525.03;4995198;28;20057;-67
2021/12/21 00:06:40;;;;;;;5.25;1.60;;;;;;;-0.79;81.41;99529.03;5007666;28;20057;-68
2021/12/21 00:09:25;;;;;;;2.90;1.73;;;;;;;-0.91;79.57;99532.56;4995097;28;20061;-66
2021/12/21 00:12:15;;;;;;;2.70;1.40;;;;;;;-0.95;80.75;99536.03;4994752;28;20057;-66
2021/12/21 00:15:05;;;;;;;3.20;1.23;;;;;;;-0.90;80.39;99533.41;5026464;28;20053;-66
2021/12/21 00:18:00;;;;;;;2.75;1.50;;;;;;;-1.09;80.95;99523.28;5013749;28;20056;-67
2021/12/21 00:23:44;;;;;;;4.60;1.40;;;;;;;-0.90;80.24;99518.81;5005696;28;20429;-67
2021/12/21 00:26:31;;;;;;;4.10;1.73;;;;;;;-0.96;80.85;99508.56;5014062;28;20061;-67
2021/12/21 00:29:16;;;;;;;4.00;2.05;;;;;;;-1.18;81.06;99505.34;5014291;28;20389;-66
2021/12/21 00:32:02;;;;;;;2.72;1.85;;;;;;;-1.38;83.06;99522.66;5013182;28;20052;-66
2021/12/21 00:34:48;;;;;;;5.82;2.20;;;;;;;-1.23;81.20;99523.41;5018857;28;20528;-67
2021/12/21 00:37:36;;;;;;;4.07;1.88;;;;;;;-1.54;82.19;99521.91;5013191;28;20069;-66
2021/12/21 00:40:22;;;;;;;2.78;1.42;;;;;;;-1.39;82.79;99532.94;5014075;28;20405;-67
2021/12/21 00:43:08;;;;;;;2.75;1.55;;;;;;;-1.20;81.68;99535.38;5014124;28;20073;-66
2021/12/21 00:45:54;;;;;;;7.00;1.95;;;;;;;-1.38;81.85;99538.06;5014208;28;20076;-67
2021/12/21 00:48:48;;;;;;;3.80;1.80;;;;;;;-1.50;82.14;99533.88;5005387;28;20045;-66
2021/12/21 00:51:34;;;;;;;5.57;1.70;;;;;;;-1.32;82.13;99544.03;5013894;28;20053;-66
2021/12/21 00:54:20;;;;;;;4.15;1.88;;;;;;;-1.39;82.04;99548.38;5012772;28;20061;-67
2021/12/21 00:57:06;;;;;;;4.38;1.65;;;;;;;-1.21;81.99;99547.38;5018572;28;20073;-66
2021/12/21 00:59:52;;;;;;;3.38;2.20;;;;;;;-1.45;81.84;99544.09;5013466;28;20121;-66
2021/12/21 01:02:39;;;;;;;3.97;1.80;;;;;;;-1.66;82.92;99551.09;5018477;28;20057;-67
2021/12/21 01:05:39;;;;;;;3.15;1.50;;;;;;;-1.73;83.46;99557.16;5013545;28;20057;-67
2021/12/21 01:08:26;;;;;;;4.65;2.05;;;;;;;-1.57;83.10;99555.34;5032256;28;20049;-67
2021/12/21 01:11:22;;;;;;;4.05;1.92;;;;;;;-1.71;83.71;99559.72;5013367;28;20069;-66
2021/12/21 01:17:12;;;;;;;3.95;1.80;;;;;;;-1.90;84.21;99554.66;5013541;28;20073;-67
2021/12/21 01:20:24;;;;;;;2.47;1.67;;;;;;;-1.82;83.96;99557.19;5013540;28;20049;-66
2021/12/21 01:26:17;;;;;;;2.13;1.17;;;;;;;-1.96;83.97;99550.41;5018345;28;20048;-67
2021/12/21 01:29:26;;;;;;;3.00;1.58;;;;;;;-1.79;84.07;99562.28;5004551;28;20049;-66
2021/12/21 01:32:27;;;;;;;3.03;1.75;;;;;;;-1.97;84.67;99558.94;5013159;28;20061;-65
2021/12/21 01:35:22;;;;;;;4.00;1.73;;;;;;;-1.81;83.80;99559.75;5012457;28;20064;-66
2021/12/21 01:41:11;;;;;;;6.28;1.80;;;;;;;-1.94;83.97;99561.50;5012954;28;20061;-66
2021/12/21 01:49:50;;;;;;;3.28;1.75;;;;;;;-2.01;84.54;99563.25;5013476;28;20402;-66
2021/12/21 01:52:36;;;;;;;2.63;1.33;;;;;;;-2.04;84.23;99568.41;5032085;28;20060;-66
2021/12/21 01:55:22;;;;;;;5.78;1.52;;;;;;;-2.20;85.23;99567.59;5013339;28;20053;-66
2021/12/21 01:58:08;;;;;;;2.58;1.40;;;;;;;-1.75;85.19;99572.53;5018897;28;20072;-65
2021/12/21 02:00:55;;;;;;;4.35;1.27;;;;;;;-1.89;83.54;99554.63;5013187;28;20049;-67
2021/12/21 02:03:47;;;;;;;4.50;2.00;;;;;;;-2.18;85.03;99563.31;5013059;28;20057;-67
2021/12/21 02:06:32;;;;;;;3.78;2.10;;;;;;;-2.07;86.32;99563.28;5021526;28;20049;-67
2021/12/21 02:09:19;;;;;;;2.88;1.40;;;;;;;-1.95;84.23;99556.38;5016914;28;20386;-66
2021/12/21 02:12:08;;;;;;;4.43;2.08;;;;;;;-2.09;86.33;99566.72;5016922;28;20504;-66
2021/12/21 02:14:57;;;;;;;4.00;1.90;;;;;;;-1.89;84.53;99561.47;5017003;28;20065;-67
2021/12/21 02:20:56;;;;;;;4.43;1.80;;;;;;;-1.95;84.73;99564.09;5015651;28;20421;-66
2021/12/21 02:23:42;;;;;;;3.00;1.75;;;;;;;-2.05;84.90;99555.56;5016627;28;20052;-66
2021/12/21 02:29:30;;;;;;;6.00;1.83;;;;;;;-1.99;85.31;99565.81;5016525;28;20071;-65
2021/12/21 02:32:16;;;;;;;2.40;1.27;;;;;;;-1.86;84.03;99574.34;5001963;28;20056;-66
2021/12/21 02:35:02;;;;;;;2.92;1.50;;;;;;;-1.93;84.66;99564.94;5016468;28;20049;-67
2021/12/21 02:37:47;;;;;;;5.15;2.10;;;;;;;-1.86;83.84;99580.31;5016456;28;20057;-66
2021/12/21 02:40:34;;;;;;;4.20;1.73;;;;;;;-1.84;84.80;99582.88;5016412;28;20399;-66
2021/12/21 02:43:19;;;;;;;4.47;1.70;;;;;;;-1.90;85.39;99576.06;5015092;28;20397;-66
2021/12/21 02:46:06;;;;;;;3.17;2.00;;;;;;;-2.25;86.18;99574.47;5015051;28;20049;-66
2021/12/21 02:48:52;;;;;;;3.78;1.98;;;;;;;-2.24;86.12;99573.63;5015897;28;20077;-66
2021/12/21 02:51:44;;;;;;;4.15;2.05;;;;;;;-1.90;85.54;99588.03;5020718;28;20079;-66
2021/12/21 02:54:29;;;;;;;4.93;2.20;;;;;;;-1.55;83.63;99575.91;5015115;28;20049;-66
2021/12/21 02:57:15;;;;;;;4.75;1.90;;;;;;;-1.77;84.19;99566.59;5016150;28;20401;-65
2021/12/21 03:00:05;;;;;;;6.00;2.63;;;;;;;-1.74;83.97;99578.56;5016275;28;20057;-66
2021/12/21 03:02:50;;;;;;;4.13;1.90;;;;;;;-1.69;84.22;99568.25;5007085;28;20057;-66
2021/12/21 03:05:37;;;;;;;3.53;2.05;;;;;;;-1.47;83.67;99566.44;5009598;28;20041;-67
2021/12/21 03:08:36;;;;;;;5.55;2.17;;;;;;;-1.68;83.74;99577.69;5015690;28;20045;-66
2021/12/21 03:11:36;;;;;;;3.88;1.83;;;;;;;-1.68;83.63;99569.97;5020281;28;20049;-66
2021/12/21 03:14:22;;;;;;;7.25;2.15;;;;;;;-1.76;84.39;99572.56;5016827;28;20064;-66
2021/12/21 03:17:09;;;;;;;3.38;1.92;;;;;;;-1.75;85.03;99561.44;5013594;28;20397;-67
2021/12/21 03:19:54;;;;;;;3.13;1.77;;;;;;;-1.75;84.32;99569.97;5015549;28;20056;-66
2021/12/21 03:22:40;;;;;;;4.22;1.58;;;;;;;-1.54;83.22;99557.03;5014372;28;20064;-67
2021/12/21 03:25:26;;;;;;;5.28;1.95;;;;;;;-1.64;83.57;99579.34;5014441;28;20053;-67
2021/12/21 03:28:14;;;;;;;4.47;1.85;;;;;;;-2.27;86.82;99571.06;5020151;28;20044;-66
2021/12/21 03:30:59;;;;;;;4.00;1.63;;;;;;;-2.04;86.72;99588.94;5015497;28;20049;-66
2021/12/21 03:33:46;;;;;;;3.92;2.10;;;;;;;-2.23;86.70;99585.59;5014433;28;20072;-67
2021/12/21 03:36:32;;;;;;;3.33;1.48;;;;;;;-2.23;86.82;99594.16;5020095;28;20053;-66
2021/12/21 03:39:19;;;;;;;4.45;1.90;;;;;;;-2.25;87.10;99595.00;5007254;28;20057;-67
2021/12/21 03:42:05;;;;;;;4.28;2.22;;;;;;;-2.53;88.36;99588.22;5014841;28;20052;-65
2021/12/21 03:44:51;;;;;;;8.98;2.00;;;;;;;-2.61;89.05;99587.38;5014521;28;20049;-66
2021/12/21 03:47:37;;;;;;;4.57;1.80;;;;;;;-2.47;88.96;99602.75;5013992;28;20073;-66
2021/12/21 03:50:23;;;;;;;3.92;1.80;;;;;;;-2.55;88.81;99589.09;5015007;28;20524;-66
2021/12/21 03:53:09;;;;;;;6.03;1.70;;;;;;;-2.39;89.06;99606.19;5015156;28;20061;-66
2021/12/21 03:58:59;;;;;;;2.55;1.63;;;;;;;-2.29;88.06;99586.47;5018260;28;20053;-65
2021/12/21 04:01:46;;;;;;;4.85;1.70;;;;;;;-2.03;86.94;99608.66;5011647;28;20433;-66
2021/12/21 04:04:32;;;;;;;6.50;2.33;;;;;;;-1.90;86.47;99590.63;5018585;28;20045;-65
2021/12/21 04:07:18;;;;;;;3.38;1.50;;;;;;;-1.94;85.93;99594.91;5011150;28;20502;-65
2021/12/21 04:10:04;;;;;;;2.97;1.60;;;;;;;-1.90;86.96;99606.03;5017699;28;20045;-66
2021/12/21 04:12:50;;;;;;;3.60;1.95;;;;;;;-1.73;85.04;99600.84;5015018;28;20057;-66
2021/12/21 04:15:49;;;;;;;3.97;1.30;;;;;;;-1.67;93.85;99584.53;5018181;28;20064;-65
2021/12/21 04:18:37;;;;;;;4.38;1.60;;;;;;;-1.52;89.58;99593.88;5013589;28;20056;-67
2021/12/21 04:21:23;;;;;;;2.67;1.52;;;;;;;-0.90;91.85;99582.31;5012292;28;20049;-65
2021/12/21 04:24:09;;;;;;;3.80;1.73;;;;;;;-0.90;87.10;99595.16;5012279;28;20420;-66
2021/12/21 04:26:55;;;;;;;5.47;1.73;;;;;;;-1.05;88.08;99596.13;5012105;28;20045;-66
2021/12/21 04:29:41;;;;;;;3.72;1.85;;;;;;;-1.12;86.27;99595.31;5011926;28;20057;-66
2021/12/21 04:32:27;;;;;;;2.80;1.45;;;;;;;-0.93;86.72;99603.75;5012273;28;20523;-67
2021/12/21 04:35:18;;;;;;;3.88;1.75;;;;;;;-1.14;85.93;99600.47;5013279;28;20057;-65
2021/12/21 04:38:25;;;;;;;4.07;1.77;;;;;;;-0.85;88.04;99601.13;5013190;28;20052;-66
2021/12/21 04:41:24;;;;;;;3.80;1.80;;;;;;;-0.70;86.19;99605.28;5012831;28;20053;-66
2021/12/21 04:44:10;;;;;;;8.10;2.17;;;;;;;-0.64;84.58;99600.06;5011972;28;20060;-66
2021/12/21 04:46:56;;;;;;;3.60;1.60;;;;;;;-0.43;86.25;99605.03;5013038;28;20053;-65
2021/12/21 04:49:41;;;;;;;4.70;1.85;;;;;;;-0.62;80.85;99594.94;5025379;28;20057;-65
2021/12/21 04:52:27;;;;;;;4.53;2.42;;;;;;;-0.79;81.48;99595.06;4993375;28;20053;-67
2021/12/21 04:55:13;;;;;;;5.78;1.80;;;;;;;-0.79;82.08;99597.63;4993545;28;20529;-66
2021/12/21 04:57:59;;;;;;;3.70;1.83;;;;;;;-0.87;82.09;99600.28;5006794;28;20397;-66
2021/12/21 05:00:45;;;;;;;3.88;1.85;;;;;;;-0.84;83.40;99599.41;4993646;28;20061;-67
2021/12/21 05:03:31;;;;;;;3.50;1.42;;;;;;;-0.71;83.65;99600.16;4992494;28;20049;-67
2021/12/21 05:06:19;;;;;;;4.13;1.63;;;;;;;-0.52;84.78;99599.13;5011288;28;20068;-67
2021/12/21 05:09:12;;;;;;;5.43;2.45;;;;;;;-0.37;80.91;99602.41;4993182;28;20049;-67
2021/12/21 05:12:04;;;;;;;5.00;1.95;;;;;;;-0.54;81.45;99590.53;4992777;28;20069;-67
2021/12/21 05:14:50;;;;;;;2.92;1.48;;;;;;;-0.40;86.63;99600.72;4993249;28;20049;-66
2021/12/21 05:17:35;;;;;;;4.68;1.70;;;;;;;-0.14;86.78;99599.59;4991655;28;20054;-65
2021/12/21 05:20:21;;;;;;;3.03;1.55;;;;;;;-0.40;82.55;99595.56;4992349;28;20053;-66
2021/12/21 05:23:08;;;;;;;5.82;2.22;;;;;;;-0.70;80.98;99605.28;4992694;28;20543;-66
2021/12/21 05:25:54;;;;;;;3.13;1.90;;;;;;;-0.87;81.71;99600.28;5000144;28;20053;-67
2021/12/21 05:28:49;;;;;;;6.20;1.98;;;;;;;-1.12;82.16;99611.63;5008560;28;20053;-67
2021/12/21 05:31:45;;;;;;;6.50;2.45;;;;;;;-0.97;82.13;99609.78;4997144;28;20057;-66
2021/12/21 05:34:32;;;;;;;4.70;2.22;;;;;;;-1.43;82.34;99621.22;4993304;28;20049;-65
2021/12/21 05:37:17;;;;;;;3.80;1.95;;;;;;;-1.15;85.27;99614.22;4997908;28;20053;-63
2021/12/21 05:40:16;;;;;;;5.03;2.50;;;;;;;-1.03;82.70;99622.72;5006517;28;20048;-66
2021/12/21 05:43:02;;;;;;;5.40;1.92;;;;;;;-1.02;83.81;99620.13;5002093;28;20413;-65
2021/12/21 05:45:48;;;;;;;3.22;1.75;;;;;;;-0.90;83.37;99611.44;5014888;28;20069;-66
2021/12/21 05:48:34;;;;;;;4.47;1.90;;;;;;;-0.99;82.73;99619.22;4996575;28;20160;-69
2021/12/21 05:51:21;;;;;;;6.53;2.67;;;;;;;-1.33;81.44;99640.88;4997305;28;20053;-64
2021/12/21 05:54:07;;;;;;;4.05;2.25;;;;;;;-1.77;83.55;99645.38;5010192;28;20513;-65
2021/12/21 05:56:52;;;;;;;4.97;2.03;;;;;;;-1.97;84.00;99641.16;4996548;28;20405;-66
2021/12/21 05:59:38;;;;;;;4.75;2.40;;;;;;;-2.06;84.73;99646.31;4997830;28;20061;-66
2021/12/21 06:02:24;;;;;;;5.28;2.40;;;;;;;-1.97;84.75;99638.59;5010111;28;20512;-66
2021/12/21 06:05:10;;;;;;;2.72;1.85;;;;;;;-2.14;85.20;99629.22;5010347;28;20061;-65
2021/12/21 06:07:56;;;;;;;9.90;2.50;;;;;;;-2.19;84.59;99641.22;4997600;28;20053;-66
2021/12/21 06:10:43;;;;;;;5.60;2.38;;;;;;;-2.36;85.16;99625.84;5001754;28;20386;-66
2021/12/21 06:25:52;;;;;;;4.72;2.00;;;;;;;-2.61;86.38;99644.69;5015386;28;20053;-66
2021/12/21 06:28:38;;;;;;;5.63;2.15;;;;;;;-2.69;86.50;99640.44;5015878;28;20511;-66
2021/12/21 06:31:24;;;;;;;4.25;2.28;;;;;;;-2.64;86.72;99644.69;5016363;28;20156;-67
2021/12/21 06:34:10;;;;;;;3.78;1.95;;;;;;;-2.70;87.65;99607.91;5016635;28;20065;-67
2021/12/21 06:36:56;;;;;;;4.40;2.63;;;;;;;-2.33;87.85;99635.28;5016304;28;20341;-65
2021/12/21 06:39:42;;;;;;;4.72;2.08;;;;;;;-2.48;85.98;99642.97;5016510;28;20061;-66
2021/12/21 06:42:28;;;;;;;4.82;2.22;;;;;;;-2.37;86.36;99645.50;5014856;28;20049;-66
2021/12/21 06:45:26;;;;;;;4.22;2.35;;;;;;;-2.48;86.49;99647.25;5020758;28;20048;-67
2021/12/21 06:51:29;;;;;;;5.57;2.35;;;;;;;-2.19;84.06;99648.94;5026438;28;20061;-67
2021/12/21 06:54:15;;;;;;;5.25;2.47;;;;;;;-1.94;83.58;99642.88;5043284;28;20507;-65
2021/12/21 06:57:01;;;;;;;5.43;1.98;;;;;;;-1.77;82.60;99658.22;5020014;28;20057;-67
2021/12/21 06:59:48;;;;;;;3.47;2.03;;;;;;;-1.32;81.89;99649.47;5025209;28;20060;-64
2021/12/21 07:02:34;;;;;;;3.72;1.90;;;;;;;-1.05;81.22;99657.88;5035726;28;20044;-74
2021/12/21 07:05:20;;;;;;;7.15;1.80;;;;;;;-0.93;78.59;99660.34;5035693;28;20068;-72
2021/12/21 07:08:12;;;;;;;5.00;2.10;;;;;;;-0.55;80.33;99655.78;5040680;28;20060;-76
2021/12/21 07:11:44;;;;;;;5.63;1.88;;;;;;;-0.18;78.25;99662.31;5035760;28;20045;-69
2021/12/21 07:20:17;;;;;;;3.67;2.35;;;;;;;-0.60;75.16;99657.53;5015246;28;20060;-66
2021/12/21 07:23:03;;;;;;;3.78;1.90;;;;;;;-0.14;74.52;99655.41;5015299;28;20057;-64
2021/12/21 07:25:50;;;;;;;6.13;2.30;;;;;;;0.09;71.43;99667.19;5015170;28;20401;-68
2021/12/21 07:28:36;;;;;;;3.45;1.98;;;;;;;0.06;71.81;99644.91;5017679;28;20069;-65
2021/12/21 07:31:22;;;;;;;3.83;1.63;;;;;;;0.27;69.46;99632.63;5014985;28;20512;-67
2021/12/21 07:34:08;;;;;;;5.32;1.95;;;;;;;1.12;70.26;99654.69;5015040;28;20056;-66
2021/12/21 07:36:53;;;;;;;3.33;1.77;;;;;;;0.68;66.78;99656.19;5017493;28;20065;-68
2021/12/21 07:39:39;;;;;;;4.28;1.80;;;;;;;0.54;66.64;99645.19;5017812;28;20065;-62
2021/12/21 07:42:25;;;;;;;3.95;1.90;;;;;;;0.54;66.44;99647.78;5014937;28;20052;-63
2021/12/21 07:45:11;;;;;;;5.18;1.92;;;;;;;1.12;64.21;99654.69;5015134;28;20049;-61
2021/12/21 07:47:57;;;;;;;5.00;1.90;;;;;;;1.38;63.53;99650.84;5014587;28;20049;-62
2021/12/21 07:50:46;;;;;;;3.50;1.73;;;;;;;1.82;61.06;99653.53;5021690;28;20068;-62
2021/12/21 07:53:32;;;;;;;2.28;1.55;;;;;;;2.13;60.38;99634.88;5014860;28;20408;-62
2021/12/21 07:56:17;;;;;;;3.30;1.48;;;;;;;2.56;60.69;99640.88;5019392;28;20057;-61
2021/12/21 07:59:04;;;;;;;5.95;1.70;;;;;;;3.37;61.45;99642.50;5014034;28;20057;-61
2021/12/21 08:01:51;;;;;;;2.60;1.60;;;;;;;3.67;58.72;99640.88;5015156;28;20049;-61
2021/12/21 08:04:38;;;;;;;2.92;1.52;;;;;;;3.69;53.86;99636.50;5025386;28;20052;-60
2021/12/21 08:07:30;;;;;;;3.10;1.60;;;;;;;3.06;55.18;99634.59;5020760;28;20061;-60
2021/12/21 08:10:41;;;;;;;2.78;1.40;;;;;;;3.91;52.82;99641.13;5020042;28;20045;-58
2021/12/21 08:13:27;;;;;;;1.85;1.20;;;;;;;3.47;52.97;99635.38;5012832;28;20053;-60
2021/12/21 08:16:13;;;;;;;3.53;1.90;;;;;;;3.33;54.28;99652.09;5012437;28;20053;-59
2021/12/21 08:19:00;;;;;;;2.25;1.33;;;;;;;4.54;53.11;99641.97;5003976;28;20441;-59
2021/12/21 08:21:46;;;;;;;5.88;1.42;;;;;;;4.42;50.92;99649.22;5013953;28;20112;-60
2021/12/21 08:24:33;;;;;;;3.28;1.67;;;;;;;4.36;50.52;99656.38;5014239;28;20061;-60
2021/12/21 08:27:18;;;;;;;3.15;1.67;;;;;;;4.25;51.79;99643.69;5013768;28;20416;-60
2021/12/21 08:30:05;;;;;;;2.83;1.60;;;;;;;4.26;50.33;99656.59;5013710;28;20057;-60
2021/12/21 08:32:50;;;;;;;2.47;1.77;;;;;;;4.42;50.07;99662.19;5012954;28;20052;-59
2021/12/21 08:35:36;;;;;;;2.63;1.80;;;;;;;4.56;56.51;99656.63;5007267;28;20053;-63
2021/12/21 08:38:22;;;;;;;2.30;1.42;;;;;;;4.35;52.80;99654.66;5012422;28;20045;-62
2021/12/21 08:41:07;;;;;;;2.33;1.50;;;;;;;4.97;49.11;99650.22;5017238;28;20511;-62
2021/12/21 08:43:54;;;;;;;3.10;1.70;;;;;;;4.05;50.41;99661.50;5012861;28;20065;-61
2021/12/21 08:46:40;;;;;;;2.67;1.60;;;;;;;4.76;49.03;99662.13;5014159;28;20080;-61
2021/12/21 08:49:26;;;;;;;5.13;1.90;;;;;;;4.79;49.32;99667.22;5014147;28;20057;-60
2021/12/21 08:52:12;;;;;;;1.60;1.35;;;;;;;5.40;47.80;99671.38;5013756;28;20061;-60
2021/12/21 08:54:58;;;;;;;3.10;1.52;;;;;;;4.63;48.75;99667.69;5013694;28;20044;-67
2021/12/21 08:57:44;;;;;;;4.07;1.60;;;;;;;4.76;48.46;99672.50;5012766;28;20053;-65
2021/12/21 09:00:30;;;;;;;4.05;1.60;;;;;;;4.93;48.70;99671.97;5033576;28;20064;-69
2021/12/21 09:03:17;;;;;;;2.95;1.30;;;;;;;5.07;47.81;99666.38;5037718;28;20052;-64
2021/12/21 09:06:03;;;;;;;3.55;1.58;;;;;;;5.17;49.98;99669.53;5044705;28;20048;-49
2021/12/21 09:08:48;;;;;;;3.88;1.70;;;;;;;5.12;48.05;99677.47;5030849;28;20056;-57
2021/12/21 09:11:35;;;;;;;3.20;1.52;;;;;;;5.64;49.29;99670.63;5032073;28;20049;-52
2021/12/21 09:14:21;;;;;;;2.08;1.27;;;;;;;6.20;47.92;99675.69;5018769;28;20114;-52
2021/12/21 09:17:07;;;;;;;3.33;1.50;;;;;;;5.32;47.52;99670.78;5013182;28;20076;-52
2021/12/21 09:19:54;;;;;;;4.28;1.33;;;;;;;5.16;48.94;99676.47;5013161;28;20056;-56
2021/12/21 09:22:40;;;;;;;2.88;1.50;;;;;;;6.59;45.42;99669.06;5026484;28;20052;-58
2021/12/21 09:25:27;;;;;;;3.92;1.65;;;;;;;6.33;46.63;99678.69;5017921;28;20052;-58
2021/12/21 09:28:14;;;;;;;3.03;1.17;;;;;;;5.98;47.32;99673.81;5019665;28;20056;-58
2021/12/21 09:31:01;;;;;;;1.88;1.20;;;;;;;6.57;45.40;99663.06;5015890;28;20052;-61
2021/12/21 09:33:47;;;;;;;2.47;1.20;;;;;;;7.21;44.00;99671.06;5005591;28;20060;-61
2021/12/21 09:36:34;;;;;;;2.78;1.30;;;;;;;6.68;45.86;99653.09;4993715;28;20057;-58
2021/12/21 09:39:20;;;;;;;2.90;1.40;;;;;;;7.72;47.44;99648.09;5023141;28;20053;-59
2021/12/21 09:42:06;;;;;;;4.90;1.30;;;;;;;7.14;42.37;99649.59;5012759;28;20053;-59
2021/12/21 09:44:53;;;;;;;4.43;1.73;;;;;;;6.45;44.23;99661.75;5023957;28;20420;-58
2021/12/21 09:47:39;;;;;;;2.88;1.27;;;;;;;6.98;44.42;99655.44;5015534;28;20048;-57
2021/12/21 09:50:25;;;;;;;2.33;1.50;;;;;;;5.71;45.23;99648.72;5017428;28;20496;-59
2021/12/21 09:53:12;;;;;;;2.20;1.50;;;;;;;7.52;44.44;99655.00;5018260;28;20072;-56
2021/12/21 09:55:58;;;;;;;3.47;1.45;;;;;;;7.34;43.57;99648.81;5032647;28;20044;-54
2021/12/21 09:58:44;;;;;;;3.15;1.70;;;;;;;8.70;39.68;99650.78;5025081;28;20520;-56
2021/12/21 10:01:30;;;;;;;9.00;3.95;;;;;;;9.22;40.71;99651.00;5012367;28;20052;-60
2021/12/21 10:04:17;;;;;;;2.00;1.50;;;;;;;7.74;41.36;99654.09;5010961;28;20078;-56
2021/12/21 10:07:09;;;;;;;2.30;1.50;;;;;;;6.57;44.69;99661.31;5012372;28;20068;-59
2021/12/21 10:10:18;;;;;;;2.30;1.65;;;;;;;6.86;43.21;99643.72;5011401;28;20061;-58
2021/12/21 10:13:22;;;;;;;3.45;2.03;;;;;;;8.70;41.58;99649.97;5011592;28;20049;-56
2021/12/21 10:16:10;;;;;;;2.60;1.63;;;;;;;7.13;43.38;99643.53;5012629;28;20049;-54
2021/12/21 10:18:56;;;;;;;3.47;1.42;;;;;;;7.75;43.46;99641.91;5012677;28;20053;-53
2021/12/21 10:21:46;;;;;;;3.13;1.83;;;;;;;8.04;45.92;99645.00;5012770;28;20061;-57
2021/12/21 10:24:32;;;;;;;4.82;2.00;;;;;;;8.68;42.25;99643.97;5016953;28;20433;-57
2021/12/21 10:27:20;;;;;;;2.95;2.10;;;;;;;8.67;40.66;99643.09;5000491;28;20057;-52
2021/12/21 10:30:06;;;;;;;3.92;1.85;;;;;;;9.19;40.25;99630.25;4982126;28;20050;-56
2021/12/21 10:32:54;;;;;;;7.95;1.70;;;;;;;9.48;46.03;99630.56;4996665;28;20049;-51
2021/12/21 10:35:40;;;;;;;5.55;2.38;;;;;;;10.27;37.51;99640.50;5015218;28;20045;-56
2021/12/21 10:38:33;;;;;;;8.77;2.72;;;;;;;9.74;44.12;99629.22;5026318;28;20048;-56
2021/12/21 10:41:27;;;;;;;3.35;2.10;;;;;;;9.77;39.73;99619.53;5034935;28;20052;-57
2021/12/21 10:44:18;;;;;;;4.18;2.13;;;;;;;9.56;39.71;99614.47;5031819;28;20065;-55
2021/12/21 10:47:04;;;;;;;2.20;1.65;;;;;;;9.21;42.28;99620.53;5020987;28;20060;-55
2021/12/21 10:49:52;;;;;;;2.75;1.90;;;;;;;8.68;43.02;99615.22;5021920;28;20053;-56
2021/12/21 10:52:40;;;;;;;4.45;2.42;;;;;;;9.22;44.74;99612.63;5015915;28;20049;-54
2021/12/21 10:55:33;;;;;;;3.45;2.05;;;;;;;9.01;48.58;99622.34;5016094;28;20056;-56
2021/12/21 10:58:19;;;;;;;5.22;2.35;;;;;;;9.34;46.91;99621.63;5014818;28;20056;-58
2021/12/21 11:01:09;;;;;;;3.72;2.30;;;;;;;9.43;41.50;99607.25;5015717;28;20520;-57
2021/12/21 11:03:56;;;;;;;6.55;2.15;;;;;;;10.54;42.67;99622.47;5016040;28;20052;-56
2021/12/21 11:06:48;;;;;;;3.70;1.85;;;;;;;10.39;50.47;99613.66;5020896;28;20053;-56
2021/12/21 11:09:34;;;;;;;4.53;2.75;;;;;;;8.24;42.03;99625.00;5021005;28;20053;-57
2021/12/21 11:12:22;;;;;;;6.93;1.90;;;;;;;8.32;61.02;99609.84;5006791;28;20053;-57
2021/12/21 11:15:10;;;;;;;5.53;2.58;;;;;;;10.34;40.90;99611.31;5006455;28;20061;-53
2021/12/21 11:17:58;;;;;;;5.13;2.60;;;;;;;10.41;40.25;99606.53;5000932;28;20057;-54
2021/12/21 11:20:48;;;;;;;3.58;2.40;;;;;;;11.06;38.01;99601.31;5014981;28;20065;-55
2021/12/21 11:23:34;;;;;;;5.27;2.30;;;;;;;11.32;39.16;99598.94;5001197;28;20053;-57
2021/12/21 11:26:22;;;;;;;3.45;2.13;;;;;;;10.83;39.12;99596.44;5008845;28;20058;-56
2021/12/21 11:29:10;;;;;;;6.35;2.50;;;;;;;10.93;38.04;99598.53;5001270;28;20057;-55
2021/12/21 11:31:57;;;;;;;4.70;1.98;;;;;;;12.30;51.02;99587.88;5008425;28;20049;-54
2021/12/21 11:37:20;;;;;;;4.30;1.90;;;;;;;12.27;41.62;99580.16;4996015;28;20054;-53
2021/12/21 11:37:54;;;;;;;7.85;2.22;;;;;;;11.18;38.57;99579.59;4994990;28;20061;-55
2021/12/21 11:40:43;;;;;;;3.95;2.00;;;;;;;10.98;43.96;99579.91;5029104;28;20061;-55
2021/12/21 11:43:55;;;;;;;5.20;2.20;;;;;;;11.31;39.89;99579.72;5034535;28;20052;-54
2021/12/21 11:46:53;;;;;;;2.30;1.70;;;;;;;9.58;46.01;99579.44;5054053;28;20065;-51
2021/12/21 11:49:55;;;;;;;6.00;2.13;;;;;;;10.70;44.02;99584.94;4986706;28;20411;-55
2021/12/21 11:52:53;;;;;;;3.47;1.88;;;;;;;10.16;44.48;99584.31;5008394;28;20049;-53
2021/12/21 11:55:41;;;;;;;4.10;2.50;;;;;;;9.59;39.23;99585.53;4986603;28;20057;-59
2021/12/21 11:58:32;;;;;;;3.63;1.90;;;;;;;12.37;38.00;99583.06;4994998;28;20536;-55
2021/12/21 12:01:23;;;;;;;3.58;2.30;;;;;;;11.13;39.17;99581.66;4994768;28;20413;-53
2021/12/21 12:04:11;;;;;;;3.60;2.03;;;;;;;9.02;40.17;99568.31;4994069;28;20062;-55
2021/12/21 12:06:57;;;;;;;3.38;2.05;;;;;;;8.85;41.85;99583.91;5013760;28;20056;-52
2021/12/21 12:09:45;;;;;;;3.55;2.30;;;;;;;8.79;43.11;99567.69;4999664;28;20053;-54
2021/12/21 12:12:31;;;;;;;3.55;2.17;;;;;;;8.61;43.09;99576.34;4999592;28;20057;-58
2021/12/21 12:15:17;;;;;;;5.70;2.38;;;;;;;9.41;59.29;99572.47;4995021;28;20045;-41
2021/12/21 12:18:04;;;;;;;3.67;1.73;;;;;;;13.38;49.13;99567.81;4995040;28;20145;-42
2021/12/21 12:20:50;;;;;;;3.53;1.80;;;;;;;11.03;40.25;99535.94;4996940;28;20057;-55
2021/12/21 12:24:04;;;;;;;3.67;2.30;;;;;;;8.24;41.55;99568.41;4995139;28;20090;-56
2021/12/21 12:27:03;;;;;;;3.50;2.10;;;;;;;9.25;40.08;99559.34;4995119;28;20049;-56
2021/12/21 12:29:57;;;;;;;3.00;1.65;;;;;;;8.89;39.70;99568.94;4994822;28;20394;-56
2021/12/21 12:32:48;;;;;;;4.57;1.75;;;;;;;8.95;44.25;99552.09;5012648;28;20049;-55
2021/12/21 12:35:36;;;;;;;2.22;1.60;;;;;;;10.92;43.93;99552.25;5007017;28;20065;-53
2021/12/21 12:38:22;;;;;;;3.20;1.73;;;;;;;11.07;42.06;99547.91;5015294;28;20065;-56
2021/12/21 12:41:12;;;;;;;3.65;1.40;;;;;;;12.06;46.24;99542.94;5014418;28;20121;-56
2021/12/21 12:43:58;;;;;;;2.92;1.70;;;;;;;10.47;37.61;99550.41;5027368;28;20057;-54
2021/12/21 12:46:55;;;;;;;3.15;1.60;;;;;;;11.68;39.68;99549.63;4994511;28;20050;-54
2021/12/21 12:49:49;;;;;;;2.85;1.80;;;;;;;8.87;38.71;99552.47;4994512;28;20494;-54
2021/12/21 12:52:35;;;;;;;2.85;1.70;;;;;;;8.01;42.72;99546.81;4994276;28;20054;-54
2021/12/21 12:55:21;;;;;;;4.90;2.28;;;;;;;8.69;42.24;99554.22;4994267;28;20401;-54
2021/12/21 12:58:20;;;;;;;3.38;1.75;;;;;;;8.44;39.95;99547.50;4994363;28;20057;-53
2021/12/21 13:01:35;;;;;;;3.15;1.85;;;;;;;6.28;44.57;99544.38;4994066;28;20053;-54
2021/12/21 13:04:19;;;;;;;4.60;1.70;;;;;;;8.60;44.43;99543.28;4999713;28;20056;-52
2021/12/21 13:07:05;;;;;;;4.55;2.05;;;;;;;7.27;41.72;99537.88;4993752;28;20073;-55
2021/12/21 13:10:00;;;;;;;3.47;1.98;;;;;;;6.37;49.99;99548.38;4992963;28;20053;-56
2021/12/21 13:12:55;;;;;;;3.03;1.67;;;;;;;8.27;46.05;99525.66;4998828;28;20076;-53
2021/12/21 13:15:44;;;;;;;3.28;1.83;;;;;;;7.68;43.04;99529.16;4993947;28;20057;-51
2021/12/21 13:18:29;;;;;;;3.67;1.95;;;;;;;8.86;44.04;99535.94;4993786;28;20053;-52
2021/12/21 13:21:26;;;;;;;3.90;1.58;;;;;;;9.46;40.29;99540.84;5006705;28;20499;-54
2021/12/21 13:24:23;;;;;;;2.85;1.85;;;;;;;9.48;41.66;99537.22;5006679;28;20061;-53
2021/12/21 13:27:13;;;;;;;2.35;1.70;;;;;;;8.49;41.53;99538.53;4992290;28;20061;-54
2021/12/21 13:30:05;;;;;;;3.05;1.80;;;;;;;8.08;46.43;99525.69;4992383;28;20049;-54
2021/12/21 13:32:56;;;;;;;2.83;1.80;;;;;;;8.34;44.47;99532.28;4979142;28;20118;-53
2021/12/21 13:35:43;;;;;;;2.13;1.60;;;;;;;8.49;40.78;99542.91;4992938;28;20160;-53
2021/12/21 13:38:28;;;;;;;2.72;1.52;;;;;;;8.01;48.34;99531.16;4994051;28;20057;-51
2021/12/21 13:41:16;;;;;;;4.15;1.67;;;;;;;8.56;45.54;99543.50;4993655;28;20489;-49
2021/12/21 13:44:01;;;;;;;2.53;1.60;;;;;;;7.39;48.66;99526.09;4984897;28;20520;-53
2021/12/21 13:46:47;;;;;;;3.53;1.73;;;;;;;8.80;43.36;99543.22;4992643;28;20057;-52
2021/12/21 13:49:33;;;;;;;3.58;1.75;;;;;;;9.61;46.02;99539.22;4993772;28;20053;-51
2021/12/21 13:52:19;;;;;;;3.63;1.90;;;;;;;8.77;45.73;99525.09;4993607;28;20050;-54
2021/12/21 13:55:07;;;;;;;7.25;3.47;;;;;;;9.60;49.40;99534.91;4993464;28;20122;-53
2021/12/21 13:57:57;;;;;;;4.90;2.28;;;;;;;10.32;42.30;99537.19;4992808;28;20077;-53
2021/12/21 14:00:51;;;;;;;4.32;2.08;;;;;;;10.05;39.69;99540.41;4994039;28;20057;-54
2021/12/21 14:03:45;;;;;;;4.93;2.15;;;;;;;9.98;42.83;99534.66;4982899;28;20096;-51
2021/12/21 14:06:35;;;;;;;2.75;1.70;;;;;;;9.69;41.00;99534.44;5002248;28;20397;-54